Time;durP1;ratioP1;P1;durP2;ratioP2;P2;SDS_P1;SDS_P2;PMS_P1;PMS_P2;Temp;Humidity;BMP_temperature;BMP_pressure;BME280_temperature;BME280_humidity;BME280_pressure;Samples;Min_cycle;Max_cycle;Signal;HPM_P1;HPM_P2
2021/05/10 00:01:46;;;;;;;3.00;2.70;;;20.70;1.00;;;;;;5054893;28;20272;-60
2021/05/10 00:04:12;;;;;;;3.53;3.20;;;20.60;1.00;;;;;;5054549;28;20192;-60
2021/05/10 00:06:37;;;;;;;3.10;2.90;;;20.50;1.00;;;;;;5054664;28;20181;-61
2021/05/10 00:09:05;;;;;;;3.10;2.80;;;20.40;1.00;;;;;;5054940;28;20264;-60
2021/05/10 00:11:34;;;;;;;2.63;2.27;;;20.30;1.00;;;;;;5054863;28;20221;-60
2021/05/10 00:14:00;;;;;;;2.50;2.30;;;20.30;1.00;;;;;;5054271;28;20884;-60
2021/05/10 00:16:26;;;;;;;3.27;2.70;;;20.20;1.00;;;;;;5054759;28;20711;-59
2021/05/10 00:18:51;;;;;;;3.13;2.57;;;20.20;1.00;;;;;;5054321;28;20471;-59
2021/05/10 00:21:17;;;;;;;4.30;2.97;;;20.10;1.00;;;;;;5054412;28;20188;-59
2021/05/10 00:23:42;;;;;;;3.10;2.50;;;20.10;1.00;;;;;;5054025;28;20180;-59
2021/05/10 00:26:08;;;;;;;2.60;2.40;;;20.00;1.00;;;;;;5054239;28;20255;-59
2021/05/10 00:28:33;;;;;;;2.80;2.53;;;20.00;1.00;;;;;;5053763;28;20191;-59
2021/05/10 00:30:59;;;;;;;2.90;2.70;;;19.90;1.00;;;;;;5054230;28;20278;-59
2021/05/10 00:33:27;;;;;;;3.53;2.80;;;19.80;1.00;;;;;;5053770;28;20177;-59
2021/05/10 00:35:53;;;;;;;3.20;2.90;;;19.80;1.00;;;;;;5053771;28;20187;-59
2021/05/10 00:38:18;;;;;;;2.90;2.53;;;19.80;1.00;;;;;;5053870;28;20463;-59
2021/05/10 00:40:44;;;;;;;2.47;2.27;;;19.80;1.00;;;;;;5054173;28;20496;-59
2021/05/10 00:43:10;;;;;;;3.17;2.40;;;19.90;1.00;;;;;;5053944;28;20181;-59
2021/05/10 00:45:35;;;;;;;2.83;2.63;;;19.80;1.00;;;;;;5052815;28;20238;-59
2021/05/10 00:48:02;;;;;;;2.60;2.13;;;19.80;1.00;;;;;;5054075;28;20216;-59
2021/05/10 00:50:31;;;;;;;3.03;2.70;;;19.80;1.00;;;;;;5053034;28;20531;-59
2021/05/10 00:52:57;;;;;;;2.97;2.70;;;19.70;1.00;;;;;;5053617;28;20427;-59
2021/05/10 00:55:23;;;;;;;3.10;2.80;;;19.60;1.00;;;;;;5053466;28;20820;-59
2021/05/10 00:57:54;;;;;;;4.47;3.50;;;19.70;1.00;;;;;;5053620;28;20565;-59
2021/05/10 01:00:22;;;;;;;8.03;6.77;;;19.60;1.00;;;;;;5052940;28;20187;-59
2021/05/10 01:02:48;;;;;;;4.70;4.20;;;19.80;1.00;;;;;;5053529;28;20427;-59
2021/05/10 01:05:15;;;;;;;3.73;2.50;;;19.80;1.00;;;;;;5053164;28;20880;-59
2021/05/10 01:07:41;;;;;;;3.10;2.87;;;19.80;1.00;;;;;;5053316;28;21140;-60
2021/05/10 01:10:13;;;;;;;2.40;2.20;;;19.60;1.00;;;;;;5053574;28;20467;-59
2021/05/10 01:12:39;;;;;;;2.47;2.27;;;19.50;1.00;;;;;;5053758;28;20426;-59
2021/05/10 01:15:11;;;;;;;2.90;2.07;;;19.60;1.00;;;;;;5053273;28;20449;-63
2021/05/10 01:17:38;;;;;;;2.33;2.13;;;19.60;1.00;;;;;;5053316;28;20498;-63
2021/05/10 01:20:09;;;;;;;2.70;2.33;;;19.60;1.00;;;;;;5053281;28;20950;-59
2021/05/10 01:22:39;;;;;;;3.00;2.53;;;19.70;1.00;;;;;;5053316;28;20426;-65
2021/05/10 01:25:05;;;;;;;3.77;3.47;;;19.80;1.00;;;;;;5053084;28;20505;-63
2021/05/10 01:27:30;;;;;;;4.17;2.70;;;19.80;1.00;;;;;;5053124;28;20438;-62
2021/05/10 01:29:56;;;;;;;1.93;1.80;;;19.80;1.00;;;;;;5053138;28;20423;-62
2021/05/10 01:32:22;;;;;;;2.67;2.17;;;19.70;1.00;;;;;;5053630;28;20615;-62
2021/05/10 01:34:47;;;;;;;4.03;2.83;;;19.70;1.00;;;;;;5052814;28;20211;-63
2021/05/10 01:37:13;;;;;;;3.10;2.10;;;19.70;1.00;;;;;;5052093;28;20246;-63
2021/05/10 01:39:38;;;;;;;3.00;2.80;;;19.70;1.00;;;;;;5052164;28;20181;-62
2021/05/10 01:42:04;;;;;;;2.53;2.33;;;19.70;1.00;;;;;;5052342;28;20245;-62
2021/05/10 01:44:33;;;;;;;2.80;2.07;;;19.70;1.00;;;;;;5052821;28;20236;-63
2021/05/10 01:46:58;;;;;;;2.50;2.17;;;19.60;1.00;;;;;;5052856;28;20427;-62
2021/05/10 01:49:24;;;;;;;5.17;3.80;;;19.70;1.00;;;;;;5052130;28;20505;-63
2021/05/10 01:51:50;;;;;;;3.70;3.00;;;19.80;1.00;;;;;;5053282;28;20191;-62
2021/05/10 01:54:18;;;;;;;3.90;3.20;;;19.70;1.00;;;;;;5053399;28;20185;-62
2021/05/10 01:56:43;;;;;;;3.83;2.20;;;19.70;1.00;;;;;;5052944;28;20435;-63
2021/05/10 01:59:09;;;;;;;5.13;4.10;;;19.60;1.00;;;;;;5052571;28;20423;-63
2021/05/10 02:01:34;;;;;;;4.27;2.63;;;19.70;1.00;;;;;;5052626;28;20188;-63
2021/05/10 02:04:00;;;;;;;4.43;2.70;;;19.70;1.00;;;;;;5052276;28;20556;-63
2021/05/10 02:06:26;;;;;;;2.40;2.20;;;19.70;1.00;;;;;;5052498;28;20181;-63
2021/05/10 02:08:52;;;;;;;3.97;2.10;;;19.60;1.00;;;;;;5052509;28;20565;-63
2021/05/10 02:11:17;;;;;;;2.60;1.80;;;19.60;1.00;;;;;;5052582;28;20929;-60
2021/05/10 02:13:43;;;;;;;1.93;1.83;;;19.60;1.00;;;;;;5052325;28;20184;-59
2021/05/10 02:16:08;;;;;;;3.40;2.40;;;19.70;1.00;;;;;;5052631;28;20258;-59
2021/05/10 02:18:35;;;;;;;2.00;1.80;;;19.60;1.00;;;;;;5052430;28;20230;-59
2021/05/10 02:21:02;;;;;;;2.20;2.00;;;19.50;1.00;;;;;;5052914;28;20181;-59
2021/05/10 02:23:33;;;;;;;2.73;1.97;;;19.50;1.00;;;;;;5052415;28;20438;-59
2021/05/10 02:26:07;;;;;;;3.00;2.20;;;19.50;1.00;;;;;;5052381;28;20485;-59
2021/05/10 02:28:33;;;;;;;3.03;2.20;;;19.50;1.00;;;;;;5052792;28;20748;-59
2021/05/10 02:31:02;;;;;;;2.53;2.23;;;19.50;1.00;;;;;;5052879;28;20435;-59
2021/05/10 02:33:31;;;;;;;2.60;1.87;;;19.40;1.00;;;;;;5052816;28;20434;-59
2021/05/10 02:35:57;;;;;;;2.57;2.37;;;19.40;1.00;;;;;;5052453;28;20817;-59
2021/05/10 02:38:26;;;;;;;5.20;2.13;;;19.50;1.00;;;;;;5052584;28;20482;-60
2021/05/10 02:40:52;;;;;;;4.60;2.20;;;19.60;1.00;;;;;;5052484;28;20431;-59
2021/05/10 02:43:19;;;;;;;2.10;1.90;;;19.60;1.00;;;;;;5052284;28;20454;-59
2021/05/10 02:45:45;;;;;;;2.33;1.60;;;19.60;1.00;;;;;;5052281;28;20226;-59
2021/05/10 02:48:11;;;;;;;2.23;2.03;;;19.60;1.00;;;;;;5052280;28;21037;-59
2021/05/10 02:50:37;;;;;;;4.57;2.50;;;19.60;1.00;;;;;;5052631;28;20455;-59
2021/05/10 02:53:03;;;;;;;3.60;2.00;;;19.70;1.00;;;;;;5055003;28;20488;-59
2021/05/10 02:55:29;;;;;;;1.83;1.50;;;19.90;1.00;;;;;;5055863;28;20896;-59
2021/05/10 02:57:55;;;;;;;3.50;1.60;;;19.90;1.00;;;;;;5056079;28;20473;-60
2021/05/10 03:00:23;;;;;;;2.50;2.30;;;19.80;1.00;;;;;;5056202;28;20195;-59
2021/05/10 03:02:50;;;;;;;2.90;2.30;;;19.90;1.00;;;;;;5056082;28;20492;-59
2021/05/10 03:05:16;;;;;;;2.17;2.07;;;19.80;1.00;;;;;;5055568;28;20423;-59
2021/05/10 03:07:42;;;;;;;2.40;2.10;;;19.80;1.00;;;;;;5055942;28;20455;-59
2021/05/10 03:10:10;;;;;;;2.80;2.20;;;19.80;1.00;;;;;;5054925;28;20462;-59
2021/05/10 03:12:37;;;;;;;2.13;1.93;;;19.80;1.00;;;;;;5055686;28;20189;-59
2021/05/10 03:15:06;;;;;;;2.50;2.07;;;19.80;1.00;;;;;;5055581;28;20496;-59
2021/05/10 03:17:32;;;;;;;3.10;2.33;;;19.90;1.00;;;;;;5055692;28;20803;-59
2021/05/10 03:19:57;;;;;;;2.30;2.10;;;19.80;1.00;;;;;;5055846;28;20419;-59
2021/05/10 03:22:23;;;;;;;2.47;2.27;;;19.90;1.00;;;;;;5055641;28;20187;-59
2021/05/10 03:24:48;;;;;;;2.13;1.93;;;20.10;1.00;;;;;;5054943;28;20184;-59
2021/05/10 03:27:14;;;;;;;2.30;2.10;;;20.10;1.00;;;;;;5055523;28;20185;-59
2021/05/10 03:29:39;;;;;;;2.00;1.80;;;20.00;1.00;;;;;;5055387;28;20561;-59
2021/05/10 03:32:05;;;;;;;2.10;1.90;;;20.00;1.00;;;;;;5055483;28;20189;-60
2021/05/10 03:34:30;;;;;;;2.70;2.50;;;20.00;1.00;;;;;;5054969;28;20177;-62
2021/05/10 03:36:56;;;;;;;2.03;1.83;;;19.90;1.00;;;;;;5055428;28;20246;-62
2021/05/10 03:39:22;;;;;;;2.30;2.10;;;19.80;1.00;;;;;;5055329;28;20590;-62
2021/05/10 03:41:47;;;;;;;2.73;2.50;;;19.80;1.00;;;;;;5054816;28;20257;-62
2021/05/10 03:44:13;;;;;;;2.73;2.53;;;19.80;1.00;;;;;;5054815;28;20181;-62
2021/05/10 03:46:38;;;;;;;2.00;1.67;;;19.70;1.00;;;;;;5053386;28;20209;-62
2021/05/10 03:49:04;;;;;;;3.30;2.43;;;19.70;1.00;;;;;;5054901;28;20195;-62
2021/05/10 03:51:29;;;;;;;2.07;1.90;;;19.80;1.00;;;;;;5054775;28;20679;-64
2021/05/10 03:53:55;;;;;;;4.93;3.67;;;19.80;1.00;;;;;;5054680;28;20253;-64
2021/05/10 03:56:21;;;;;;;2.67;2.30;;;19.90;1.00;;;;;;5054018;28;20185;-62
2021/05/10 03:58:46;;;;;;;6.03;3.63;;;20.00;1.00;;;;;;5055004;28;20560;-62
2021/05/10 04:01:12;;;;;;;2.10;1.90;;;20.00;1.00;;;;;;5054540;28;20880;-62
2021/05/10 04:04:00;;;;;;;3.00;2.23;;;20.20;1.00;;;;;;5053649;28;20200;-62
2021/05/10 04:06:44;;;;;;;2.43;2.23;;;20.30;1.00;;;;;;5054773;28;20177;-62
2021/05/10 04:14:13;;;;;;;5.17;2.17;;;20.50;1.00;;;;;;5054182;28;20424;-62
2021/05/10 04:16:38;;;;;;;1.80;1.70;;;20.50;1.00;;;;;;5054246;28;20798;-59
2021/05/10 04:19:04;;;;;;;3.10;2.20;;;20.50;1.00;;;;;;5054197;28;20216;-60
2021/05/10 04:21:29;;;;;;;3.30;2.33;;;20.70;1.00;;;;;;5054351;28;20184;-62
2021/05/10 04:23:55;;;;;;;3.93;2.50;;;20.70;1.00;;;;;;5054224;28;20207;-59
2021/05/10 04:26:20;;;;;;;4.03;2.20;;;20.40;1.00;;;;;;5054330;28;20177;-59
2021/05/10 04:28:46;;;;;;;4.83;2.20;;;20.30;1.00;;;;;;5054463;28;20196;-59
2021/05/10 04:31:11;;;;;;;2.90;2.60;;;20.30;1.00;;;;;;5054273;28;20552;-59
2021/05/10 04:33:37;;;;;;;2.83;2.00;;;20.30;1.00;;;;;;5053916;28;20703;-59
2021/05/10 04:36:03;;;;;;;2.70;2.50;;;20.40;1.00;;;;;;5053919;28;20184;-59
2021/05/10 04:38:29;;;;;;;2.20;2.07;;;20.40;1.00;;;;;;5054166;28;20204;-59
2021/05/10 04:40:55;;;;;;;4.00;2.70;;;20.60;1.00;;;;;;5054320;28;20189;-59
2021/05/10 04:43:21;;;;;;;7.60;2.27;;;20.90;1.00;;;;;;5053955;28;20455;-59
2021/05/10 04:45:47;;;;;;;5.23;2.50;;;21.20;1.00;;;;;;5053668;28;20427;-59
2021/05/10 04:48:13;;;;;;;3.13;2.60;;;21.20;1.00;;;;;;5053808;28;20485;-59
2021/05/10 04:50:38;;;;;;;2.20;2.00;;;21.00;1.00;;;;;;5053874;28;20518;-59
2021/05/10 04:53:10;;;;;;;3.40;2.07;;;21.00;1.00;;;;;;5053847;28;20476;-59
2021/05/10 04:55:35;;;;;;;1.83;1.73;;;21.00;1.00;;;;;;5053705;28;20587;-59
2021/05/10 04:58:01;;;;;;;4.07;2.50;;;21.00;1.00;;;;;;5053572;28;20459;-59
2021/05/10 05:00:26;;;;;;;3.83;2.80;;;21.10;1.00;;;;;;5053707;28;20279;-59
2021/05/10 05:02:52;;;;;;;2.97;2.50;;;21.00;1.00;;;;;;5053478;28;20177;-59
2021/05/10 05:05:17;;;;;;;3.40;3.07;;;20.90;1.00;;;;;;5053283;28;20173;-59
2021/05/10 05:07:43;;;;;;;4.40;2.50;;;20.90;1.00;;;;;;5053562;28;20272;-62
2021/05/10 05:10:10;;;;;;;3.63;2.90;;;21.00;1.00;;;;;;5053512;28;20192;-62
2021/05/10 05:12:39;;;;;;;5.93;2.70;;;21.10;1.00;;;;;;5054609;28;20180;-62
2021/05/10 05:15:07;;;;;;;2.63;2.03;;;21.20;1.00;;;;;;5054531;28;20428;-62
2021/05/10 05:17:34;;;;;;;3.00;2.60;;;21.20;1.00;;;;;;5053729;28;20521;-63
2021/05/10 05:19:59;;;;;;;4.40;2.80;;;21.20;1.00;;;;;;5053925;28;20880;-63
2021/05/10 05:22:25;;;;;;;3.60;3.20;;;21.30;1.00;;;;;;5054510;28;20419;-63
2021/05/10 05:24:50;;;;;;;3.37;2.27;;;21.10;1.00;;;;;;5054955;28;20184;-62
2021/05/10 05:27:16;;;;;;;4.77;2.83;;;20.90;1.00;;;;;;5056427;28;20536;-62
2021/05/10 05:29:42;;;;;;;4.83;2.70;;;21.10;1.00;;;;;;5055627;28;20191;-63
2021/05/10 05:32:07;;;;;;;4.53;2.40;;;21.20;1.00;;;;;;5055546;28;20637;-62
2021/05/10 05:34:33;;;;;;;3.83;2.50;;;21.10;1.00;;;;;;5055954;28;20187;-63
2021/05/10 05:36:58;;;;;;;2.70;2.50;;;21.10;1.00;;;;;;5056599;28;20566;-63
2021/05/10 05:39:24;;;;;;;3.70;3.03;;;20.70;1.00;;;;;;5056447;28;20246;-63
2021/05/10 05:41:49;;;;;;;5.57;3.00;;;20.40;1.00;;;;;;5056593;28;20185;-63
2021/05/10 05:44:15;;;;;;;5.90;3.63;;;20.20;1.00;;;;;;5055458;28;20612;-63
2021/05/10 05:46:48;;;;;;;4.93;2.70;;;20.50;1.00;;;;;;5055647;28;20263;-63
2021/05/10 05:49:14;;;;;;;4.43;3.57;;;20.60;1.00;;;;;;5053489;28;20211;-64
2021/05/10 05:51:39;;;;;;;5.50;2.80;;;20.40;1.00;;;;;;5052978;28;20458;-60
2021/05/10 05:54:07;;;;;;;3.07;2.77;;;20.30;1.00;;;;;;5053321;28;20180;-59
2021/05/10 05:56:35;;;;;;;2.77;2.50;;;20.20;1.00;;;;;;5053414;28;20322;-59
2021/05/10 05:59:00;;;;;;;5.40;2.90;;;20.20;1.00;;;;;;5051968;28;20532;-59
2021/05/10 06:01:26;;;;;;;3.30;2.60;;;20.10;1.00;;;;;;5052304;28;20431;-59
2021/05/10 06:03:55;;;;;;;3.50;3.20;;;20.00;1.00;;;;;;5053627;28;20523;-59
2021/05/10 06:06:21;;;;;;;4.33;3.10;;;20.20;1.00;;;;;;5053224;28;20183;-61
2021/05/10 06:08:48;;;;;;;2.97;2.67;;;20.20;1.00;;;;;;5053293;28;20777;-60
2021/05/10 06:11:14;;;;;;;3.23;2.47;;;20.30;1.00;;;;;;5052658;28;20473;-59
2021/05/10 06:13:39;;;;;;;2.57;2.37;;;20.60;1.00;;;;;;5052411;28;20523;-59
2021/05/10 06:16:05;;;;;;;6.23;3.83;;;20.90;1.00;;;;;;5052584;28;20251;-59
2021/05/10 06:18:31;;;;;;;7.60;4.10;;;21.10;1.00;;;;;;5052396;28;20347;-59
2021/05/10 06:21:05;;;;;;;4.43;4.13;;;21.20;1.00;;;;;;5052887;28;20497;-59
2021/05/10 06:23:31;;;;;;;3.57;3.27;;;21.20;1.00;;;;;;5052612;28;20435;-59
2021/05/10 06:25:56;;;;;;;6.30;3.30;;;20.90;1.00;;;;;;5052384;28;20441;-59
2021/05/10 06:28:22;;;;;;;5.83;3.47;;;20.60;1.00;;;;;;5055566;28;20423;-59
2021/05/10 06:30:48;;;;;;;5.03;3.33;;;20.60;1.00;;;;;;5056619;28;20216;-59
2021/05/10 06:33:13;;;;;;;3.50;3.20;;;21.00;1.00;;;;;;5056319;28;20264;-60
2021/05/10 06:35:39;;;;;;;4.30;3.03;;;21.30;1.00;;;;;;5056356;28;20188;-60
2021/05/10 06:38:04;;;;;;;3.93;3.40;;;21.30;1.00;;;;;;5052439;28;20427;-64
2021/05/10 06:40:30;;;;;;;3.73;3.00;;;21.10;1.00;;;;;;5056108;28;20181;-64
2021/05/10 06:42:56;;;;;;;4.23;3.47;;;21.10;1.00;;;;;;5056588;28;20234;-63
2021/05/10 06:45:21;;;;;;;7.37;3.30;;;21.20;1.00;;;;;;5055419;28;20180;-66
2021/05/10 06:47:48;;;;;;;3.80;3.00;;;21.70;1.00;;;;;;5056739;28;20188;-64
2021/05/10 06:50:14;;;;;;;4.50;3.20;;;22.20;1.00;;;;;;5056278;28;20647;-63
2021/05/10 06:52:40;;;;;;;3.83;3.43;;;22.50;1.00;;;;;;5056126;28;20466;-63
2021/05/10 06:55:06;;;;;;;3.10;2.80;;;22.60;1.00;;;;;;5055941;28;20466;-62
2021/05/10 06:57:32;;;;;;;3.97;2.57;;;22.60;1.00;;;;;;5055971;28;20209;-63
2021/05/10 06:59:58;;;;;;;4.60;4.20;;;22.80;1.00;;;;;;5056124;28;20453;-61
2021/05/10 07:02:24;;;;;;;3.23;2.93;;;22.90;1.00;;;;;;5055104;28;20485;-62
2021/05/10 07:04:51;;;;;;;4.00;3.10;;;23.20;1.00;;;;;;5055861;28;20423;-62
2021/05/10 07:07:17;;;;;;;4.67;3.40;;;23.20;1.00;;;;;;5056276;28;20201;-62
2021/05/10 07:09:43;;;;;;;6.03;4.17;;;23.10;1.00;;;;;;5055803;28;20448;-63
2021/05/10 07:12:11;;;;;;;5.07;3.20;;;23.20;1.00;;;;;;5055702;28;20539;-63
2021/05/10 07:14:36;;;;;;;5.90;3.43;;;23.40;1.00;;;;;;5055647;28;20434;-63
2021/05/10 07:17:02;;;;;;;3.87;3.47;;;24.10;1.00;;;;;;5055898;28;20788;-64
2021/05/10 07:19:27;;;;;;;4.50;3.20;;;24.50;1.00;;;;;;5055642;28;20196;-65
2021/05/10 07:21:54;;;;;;;4.37;3.93;;;24.80;1.00;;;;;;5055336;28;20621;-63
2021/05/10 07:24:19;;;;;;;6.00;3.90;;;24.90;1.00;;;;;;5055278;28;20567;-65
2021/05/10 07:26:45;;;;;;;4.27;3.70;;;24.80;1.00;;;;;;5055731;28;20431;-65
2021/05/10 07:29:11;;;;;;;3.83;3.53;;;25.10;1.00;;;;;;5055537;28;20180;-65
2021/05/10 07:31:36;;;;;;;4.37;3.40;;;24.90;1.00;;;;;;5055264;28;20267;-65
2021/05/10 07:34:03;;;;;;;5.40;3.87;;;25.20;1.00;;;;;;5054850;28;20633;-65
2021/05/10 07:36:28;;;;;;;4.33;3.40;;;25.40;1.00;;;;;;5055163;28;20267;-65
2021/05/10 07:38:54;;;;;;;3.40;3.00;;;25.00;1.00;;;;;;5053812;28;20561;-65
2021/05/10 07:41:19;;;;;;;6.03;3.07;;;25.40;1.00;;;;;;5055799;28;20169;-62
2021/05/10 07:43:45;;;;;;;4.53;3.17;;;25.50;1.00;;;;;;5042670;28;20633;-65
2021/05/10 07:46:10;;;;;;;4.53;3.03;;;25.70;1.00;;;;;;5066025;28;20172;-65
2021/05/10 07:48:36;;;;;;;4.00;3.50;;;25.70;1.00;;;;;;5047888;28;20181;-65
2021/05/10 07:51:01;;;;;;;2.80;2.60;;;25.40;1.00;;;;;;5055044;28;20516;-65
2021/05/10 07:53:27;;;;;;;3.40;3.10;;;25.10;1.00;;;;;;5054024;28;20181;-65
2021/05/10 07:55:54;;;;;;;3.53;2.60;;;24.60;1.00;;;;;;5057045;28;20173;-63
2021/05/10 07:58:26;;;;;;;3.67;3.03;;;24.60;1.00;;;;;;5054765;28;20241;-65
2021/05/10 08:01:00;;;;;;;3.90;3.27;;;24.80;1.00;;;;;;5054733;28;20512;-65
2021/05/10 08:03:28;;;;;;;3.17;2.87;;;24.70;1.00;;;;;;5054614;28;20476;-65
2021/05/10 08:05:54;;;;;;;4.53;2.60;;;24.80;1.00;;;;;;5054832;28;20818;-65
2021/05/10 08:08:24;;;;;;;3.80;2.60;;;25.00;1.00;;;;;;5054672;28;20435;-64
2021/05/10 08:10:50;;;;;;;2.83;2.63;;;25.40;1.00;;;;;;5054507;28;20471;-65
2021/05/10 08:13:16;;;;;;;4.00;2.67;;;25.80;1.00;;;;;;5053734;28;20431;-64
2021/05/10 08:15:43;;;;;;;5.63;3.00;;;26.10;1.00;;;;;;5054282;28;20482;-63
2021/05/10 08:18:10;;;;;;;2.90;2.50;;;26.30;1.00;;;;;;5036127;28;20197;-63
2021/05/10 08:20:36;;;;;;;2.70;2.40;;;26.60;1.00;;;;;;5042886;28;20535;-63
2021/05/10 08:23:01;;;;;;;3.40;2.60;;;26.40;1.00;;;;;;5052297;28;20531;-63
2021/05/10 08:25:27;;;;;;;3.07;2.63;;;26.30;1.00;;;;;;5051913;28;20208;-61
2021/05/10 08:27:52;;;;;;;3.97;2.70;;;26.80;1.00;;;;;;5054402;28;20185;-60
2021/05/10 08:30:18;;;;;;;3.87;2.63;;;27.50;1.00;;;;;;5054517;28;20664;-60
2021/05/10 08:32:44;;;;;;;3.07;2.67;;;28.00;1.00;;;;;;5054446;28;20177;-60
2021/05/10 08:35:10;;;;;;;3.33;2.53;;;28.10;1.00;;;;;;5053958;28;20423;-60
2021/05/10 08:37:37;;;;;;;4.03;2.20;;;28.10;1.00;;;;;;5053678;28;20628;-60
2021/05/10 08:40:04;;;;;;;3.90;2.40;;;28.10;1.00;;;;;;5054504;28;20489;-59
2021/05/10 08:42:33;;;;;;;2.90;2.00;;;28.60;1.00;;;;;;5054031;28;20423;-59
2021/05/10 08:45:02;;;;;;;2.33;2.13;;;28.90;1.00;;;;;;5053730;28;20484;-60
2021/05/10 08:47:34;;;;;;;2.70;1.93;;;28.80;1.00;;;;;;5054322;28;20762;-59
2021/05/10 08:50:00;;;;;;;2.10;1.90;;;28.30;1.00;;;;;;5053481;28;20466;-59
2021/05/10 08:52:26;;;;;;;3.33;1.97;;;28.10;1.00;;;;;;5053899;28;20427;-59
2021/05/10 08:54:52;;;;;;;1.90;1.53;;;27.90;1.00;;;;;;5053372;28;20434;-62
2021/05/10 08:57:18;;;;;;;2.60;2.03;;;28.10;1.00;;;;;;5053631;28;20467;-62
2021/05/10 08:59:43;;;;;;;3.20;1.80;;;28.10;1.00;;;;;;5053816;28;20177;-62
2021/05/10 09:02:09;;;;;;;3.10;2.53;;;28.20;1.00;;;;;;5053843;28;20176;-61
2021/05/10 09:04:41;;;;;;;4.10;2.60;;;28.20;1.00;;;;;;5053655;28;20559;-62
2021/05/10 09:07:11;;;;;;;5.07;2.53;;;28.40;1.00;;;;;;5053853;28;20518;-62
2021/05/10 09:09:57;;;;;;;3.23;1.90;;;28.20;1.00;;;;;;5053532;28;20434;-62
2021/05/10 09:12:23;;;;;;;2.00;1.80;;;28.10;1.00;;;;;;5053666;28;20422;-61
2021/05/10 09:14:52;;;;;;;2.40;2.17;;;27.90;1.00;;;;;;5052888;28;20411;-60
2021/05/10 09:17:19;;;;;;;4.60;1.60;;;27.80;1.00;;;;;;5053410;28;20201;-60
2021/05/10 09:19:51;;;;;;;2.10;1.90;;;28.20;1.00;;;;;;5053553;28;21062;-59
2021/05/10 09:22:17;;;;;;;1.87;1.63;;;28.50;1.00;;;;;;5053417;28;20473;-60
2021/05/10 09:24:50;;;;;;;3.03;1.33;;;28.90;1.00;;;;;;5051649;28;20475;-60
2021/05/10 09:27:26;;;;;;;2.20;1.90;;;29.30;1.00;;;;;;5053823;28;20192;-60
2021/05/10 09:30:12;;;;;;;2.20;1.60;;;29.60;1.00;;;;;;5053202;28;20454;-60
2021/05/10 09:32:38;;;;;;;2.10;1.90;;;29.70;1.00;;;;;;5053400;28;20434;-60
2021/05/10 09:35:14;;;;;;;2.13;1.90;;;29.60;1.00;;;;;;5053033;28;20432;-59
2021/05/10 09:37:40;;;;;;;2.63;1.70;;;29.50;1.00;;;;;;5052996;28;20502;-60
2021/05/10 09:40:07;;;;;;;2.50;1.63;;;29.50;1.00;;;;;;5053681;28;20415;-60
2021/05/10 09:42:53;;;;;;;2.40;2.10;;;29.70;1.00;;;;;;5053393;28;20435;-60
2021/05/10 09:45:32;;;;;;;3.03;1.83;;;30.40;1.00;;;;;;5051930;28;20930;-60
2021/05/10 09:48:13;;;;;;;6.03;2.30;;;30.50;1.00;;;;;;5053809;28;20423;-59
2021/05/10 09:51:12;;;;;;;1.77;1.63;;;30.50;1.00;;;;;;5053438;28;20522;-59
2021/05/10 09:53:47;;;;;;;5.03;1.90;;;29.70;1.00;;;;;;5031488;28;20432;-63
2021/05/10 09:59:04;;;;;;;2.63;2.00;;;29.30;1.00;;;;;;5033298;28;20463;-63
2021/05/10 10:01:40;;;;;;;1.97;1.63;;;29.50;1.00;;;;;;5031027;28;20419;-64
2021/05/10 10:04:06;;;;;;;3.63;2.60;;;29.30;1.00;;;;;;5033922;28;20420;-64
2021/05/10 10:06:32;;;;;;;2.17;1.97;;;29.00;1.00;;;;;;5039462;28;20454;-64
2021/05/10 10:08:58;;;;;;;3.70;1.90;;;28.80;1.00;;;;;;5059884;28;20459;-64
2021/05/10 10:11:26;;;;;;;3.20;2.47;;;28.60;1.00;;;;;;5045694;28;20461;-64
2021/05/10 10:13:53;;;;;;;2.83;2.10;;;28.70;1.00;;;;;;5055145;28;20919;-64
2021/05/10 10:16:20;;;;;;;3.70;2.63;;;28.40;1.00;;;;;;5056567;28;20454;-63
2021/05/10 10:18:47;;;;;;;4.67;1.90;;;28.00;1.00;;;;;;5037102;28;20487;-63
2021/05/10 10:21:15;;;;;;;2.80;2.50;;;28.20;1.00;;;;;;5036780;28;20420;-64
2021/05/10 10:23:43;;;;;;;2.83;1.93;;;28.60;1.00;;;;;;5045239;28;20427;-65
2021/05/10 10:26:15;;;;;;;2.50;1.80;;;28.60;1.00;;;;;;5056532;28;20431;-64
2021/05/10 10:28:45;;;;;;;4.50;2.07;;;28.60;1.00;;;;;;5036589;28;20428;-64
2021/05/10 10:31:17;;;;;;;3.80;2.63;;;29.10;1.00;;;;;;5036445;28;20420;-63
2021/05/10 10:33:50;;;;;;;2.97;2.73;;;29.50;1.00;;;;;;5036067;28;20424;-64
2021/05/10 10:36:21;;;;;;;4.80;4.17;;;29.30;1.00;;;;;;5036380;28;20657;-64
2021/05/10 10:38:46;;;;;;;3.80;2.10;;;29.40;1.00;;;;;;5035812;28;20471;-64
2021/05/10 10:41:16;;;;;;;2.87;2.57;;;29.50;1.00;;;;;;5045650;28;20431;-64
2021/05/10 10:43:41;;;;;;;4.40;2.23;;;29.30;1.00;;;;;;5055821;28;20655;-64
2021/05/10 10:46:22;;;;;;;2.10;1.60;;;29.10;1.00;;;;;;5056107;28;20553;-64
2021/05/10 10:48:50;;;;;;;2.30;2.10;;;28.90;1.00;;;;;;5056364;28;20185;-64
2021/05/10 10:51:16;;;;;;;3.23;2.00;;;28.60;1.00;;;;;;5056012;28;20430;-64
2021/05/10 10:53:49;;;;;;;2.80;2.37;;;28.90;1.00;;;;;;5055963;28;20434;-64
2021/05/10 10:56:15;;;;;;;2.43;2.23;;;28.80;1.00;;;;;;5055776;28;20427;-64
2021/05/10 10:58:43;;;;;;;2.60;2.40;;;29.10;1.00;;;;;;5055619;28;20458;-63
2021/05/10 11:01:14;;;;;;;4.50;2.07;;;29.00;1.00;;;;;;5054757;28;20503;-64
2021/05/10 11:03:40;;;;;;;4.43;2.17;;;28.90;1.00;;;;;;5056221;28;20439;-63
2021/05/10 11:06:08;;;;;;;2.67;2.37;;;28.70;1.00;;;;;;5055829;28;20429;-64
2021/05/10 11:08:40;;;;;;;2.90;1.80;;;28.80;1.00;;;;;;5054639;28;20435;-64
2021/05/10 11:11:06;;;;;;;3.03;1.80;;;29.00;1.00;;;;;;5055944;28;20541;-65
2021/05/10 11:13:32;;;;;;;2.23;2.03;;;28.80;1.00;;;;;;5055325;28;20488;-63
2021/05/10 11:16:14;;;;;;;4.83;2.13;;;28.40;1.00;;;;;;5056132;28;20431;-63
2021/05/10 11:18:56;;;;;;;1.93;1.70;;;28.10;1.00;;;;;;5035656;28;20205;-64
2021/05/10 11:21:22;;;;;;;2.40;2.20;;;28.20;1.00;;;;;;5034534;28;20428;-64
2021/05/10 11:23:51;;;;;;;3.90;2.40;;;28.30;1.00;;;;;;5035078;28;20439;-64
2021/05/10 11:26:34;;;;;;;4.07;2.37;;;28.60;1.00;;;;;;5035566;28;20176;-64
2021/05/10 11:29:00;;;;;;;3.23;2.10;;;28.90;1.00;;;;;;5035261;28;20434;-64
2021/05/10 11:31:44;;;;;;;2.30;1.70;;;29.20;1.00;;;;;;5035399;28;20427;-63
2021/05/10 11:34:12;;;;;;;4.30;2.87;;;29.40;1.00;;;;;;5035259;28;20181;-64
2021/05/10 11:36:54;;;;;;;1.83;1.67;;;29.30;1.00;;;;;;5036506;28;20426;-63
2021/05/10 11:39:27;;;;;;;2.90;1.73;;;29.40;1.00;;;;;;5035703;28;20491;-63
2021/05/10 11:42:07;;;;;;;3.70;2.70;;;29.10;1.00;;;;;;5036161;28;20424;-64
2021/05/10 11:44:35;;;;;;;3.37;2.00;;;29.00;1.00;;;;;;5035733;28;20925;-59
2021/05/10 11:47:05;;;;;;;3.20;2.30;;;28.80;1.00;;;;;;5036307;28;20420;-59
2021/05/10 11:49:31;;;;;;;2.50;1.67;;;29.00;1.00;;;;;;5035869;28;20423;-59
2021/05/10 11:52:10;;;;;;;2.00;1.80;;;29.60;1.00;;;;;;5035775;28;20481;-59
2021/05/10 11:54:38;;;;;;;3.57;2.07;;;30.10;1.00;;;;;;5035235;28;20904;-60
2021/05/10 11:57:05;;;;;;;2.10;1.90;;;30.20;1.00;;;;;;5034920;28;20423;-59
2021/05/10 11:59:36;;;;;;;3.03;2.30;;;30.00;1.00;;;;;;5034848;28;21028;-59
2021/05/10 12:02:09;;;;;;;2.10;1.77;;;29.80;1.00;;;;;;5035214;28;20424;-59
2021/05/10 12:04:36;;;;;;;3.10;2.00;;;29.60;1.00;;;;;;5034743;28;20908;-59
2021/05/10 12:07:04;;;;;;;6.17;2.13;;;29.30;1.00;;;;;;5035035;28;20426;-59
2021/05/10 12:09:37;;;;;;;6.57;2.50;;;29.20;1.00;;;;;;5034822;28;20940;-59
2021/05/10 12:12:18;;;;;;;4.87;2.17;;;29.40;1.00;;;;;;5034620;28;20440;-60
2021/05/10 12:14:46;;;;;;;7.47;6.80;;;29.20;1.00;;;;;;5038342;28;20426;-59
2021/05/10 12:17:14;;;;;;;2.30;2.10;;;29.50;1.00;;;;;;5045990;28;20770;-59
2021/05/10 12:20:03;;;;;;;3.40;2.87;;;29.20;1.00;;;;;;5034258;28;20500;-59
2021/05/10 12:22:30;;;;;;;2.90;2.00;;;28.60;1.00;;;;;;5035629;28;20503;-59
2021/05/10 12:25:13;;;;;;;2.57;2.00;;;28.60;1.00;;;;;;5033551;28;20459;-59
2021/05/10 12:28:03;;;;;;;3.40;1.97;;;28.40;1.00;;;;;;5034437;28;20924;-59
2021/05/10 12:30:33;;;;;;;4.67;2.03;;;28.00;1.00;;;;;;5035218;28;20967;-65
2021/05/10 12:33:12;;;;;;;5.40;1.90;;;27.90;1.00;;;;;;5045011;28;20427;-62
2021/05/10 12:35:42;;;;;;;4.77;2.37;;;28.10;1.00;;;;;;5036324;28;20435;-62
2021/05/10 12:38:09;;;;;;;5.77;2.80;;;28.70;1.00;;;;;;5037229;28;20466;-63
2021/05/10 12:40:41;;;;;;;1.93;1.80;;;28.80;1.00;;;;;;5053787;28;20431;-63
2021/05/10 12:43:12;;;;;;;3.97;2.40;;;29.00;1.00;;;;;;5054206;28;20891;-63
2021/05/10 12:45:42;;;;;;;2.50;2.00;;;29.10;1.00;;;;;;5053830;28;20422;-64
2021/05/10 12:48:19;;;;;;;2.43;1.97;;;28.80;1.00;;;;;;5053944;28;20485;-64
2021/05/10 12:50:50;;;;;;;2.70;1.63;;;28.70;1.00;;;;;;5053807;28;20452;-66
2021/05/10 12:53:35;;;;;;;2.57;1.70;;;28.50;1.00;;;;;;5053704;28;20804;-64
2021/05/10 12:56:09;;;;;;;2.10;1.70;;;28.00;1.00;;;;;;5053734;28;20427;-65
2021/05/10 12:58:37;;;;;;;2.00;1.50;;;28.20;1.00;;;;;;5052534;28;20482;-65
2021/05/10 13:01:20;;;;;;;5.80;1.47;;;28.20;1.00;;;;;;5053370;28;20434;-66
2021/05/10 13:03:47;;;;;;;2.20;2.00;;;28.20;1.00;;;;;;5053470;28;20507;-62
2021/05/10 13:06:17;;;;;;;2.37;1.77;;;28.40;1.00;;;;;;5053428;28;20887;-63
2021/05/10 13:08:45;;;;;;;4.27;1.70;;;28.40;1.00;;;;;;5053568;28;20469;-63
2021/05/10 13:11:17;;;;;;;2.40;1.50;;;27.90;1.00;;;;;;5053309;28;20512;-63